Time;durP1;ratioP1;P1;durP2;ratioP2;P2;SDS_P1;SDS_P2;PMS_P1;PMS_P2;Temp;Humidity;BMP_temperature;BMP_pressure;BME280_temperature;BME280_humidity;BME280_pressure;Samples;Min_cycle;Max_cycle;Signal;HPM_P1;HPM_P2
2021/09/26 00:00:31;;;;;;;8.77;4.65;;;;;;;19.49;43.60;100170.16;5091835;28;20024;-76
2021/09/26 00:02:57;;;;;;;6.15;4.55;;;;;;;19.53;43.56;100173.22;5092183;28;20035;-75
2021/09/26 00:05:22;;;;;;;5.53;4.30;;;;;;;19.29;43.80;100140.84;5092193;28;20046;-75
2021/09/26 00:07:48;;;;;;;6.15;4.40;;;;;;;19.52;43.83;100185.81;5091842;28;20024;-76
2021/09/26 00:10:13;;;;;;;5.63;4.20;;;;;;;19.29;43.88;100140.03;5092160;28;20523;-75
2021/09/26 00:12:40;;;;;;;6.70;4.70;;;;;;;19.47;43.80;100174.91;5091825;28;20489;-77
2021/09/26 00:15:09;;;;;;;7.63;4.57;;;;;;;19.51;43.94;100177.97;5091931;28;20027;-75
2021/09/26 00:17:34;;;;;;;8.48;4.65;;;;;;;19.50;43.86;100184.34;5091833;28;20020;-75
2021/09/26 00:20:00;;;;;;;5.97;4.90;;;;;;;19.29;44.15;100151.56;5091732;28;20411;-75
2021/09/26 00:22:25;;;;;;;5.18;4.68;;;;;;;19.24;44.35;100145.22;5091738;28;20500;-76
2021/09/26 00:24:51;;;;;;;6.00;4.47;;;;;;;19.39;44.40;100167.16;5091920;28;20040;-74
2021/09/26 00:27:17;;;;;;;8.27;4.60;;;;;;;19.34;44.40;100158.97;5091883;28;20028;-74
2021/09/26 00:29:42;;;;;;;6.63;4.70;;;;;;;19.40;44.49;100174.16;5091750;28;20386;-75
2021/09/26 00:32:08;;;;;;;7.25;5.72;;;;;;;19.40;44.61;100171.47;5091720;28;20052;-75
2021/09/26 00:34:34;;;;;;;6.40;4.78;;;;;;;19.37;44.75;100169.22;5091517;28;20052;-74
2021/09/26 00:37:01;;;;;;;9.40;5.13;;;;;;;19.39;44.91;100169.81;5091466;28;20034;-75
2021/09/26 00:39:26;;;;;;;7.25;5.60;;;;;;;19.39;44.80;100179.72;5091649;28;20032;-76
2021/09/26 00:41:52;;;;;;;7.93;5.22;;;;;;;19.28;44.99;100160.63;5091405;28;20484;-76
2021/09/26 00:44:18;;;;;;;8.60;5.30;;;;;;;18.75;45.30;100087.19;5090092;28;20514;-74
2021/09/26 00:46:43;;;;;;;9.32;5.60;;;;;;;19.29;45.24;100178.34;5091573;28;20036;-75
2021/09/26 00:49:09;;;;;;;6.78;5.35;;;;;;;19.27;45.33;100182.25;5091342;28;20111;-75
2021/09/26 00:51:34;;;;;;;7.05;5.03;;;;;;;19.20;45.56;100182.31;5091406;28;20466;-76
2021/09/26 00:54:00;;;;;;;9.45;5.63;;;;;;;19.14;45.70;100180.53;5091499;28;20016;-75
2021/09/26 00:56:26;;;;;;;7.10;5.18;;;;;;;19.12;45.79;100171.88;5091421;28;20389;-74
2021/09/26 00:58:51;;;;;;;6.95;5.60;;;;;;;19.04;45.94;100156.91;5091482;28;20024;-76
2021/09/26 01:01:17;;;;;;;6.90;5.25;;;;;;;18.88;45.93;100130.69;5094759;28;20028;-75
2021/09/26 01:03:43;;;;;;;7.18;5.63;;;;;;;19.12;46.00;100171.06;5095545;28;20511;-75
2021/09/26 01:06:29;;;;;;;6.20;5.57;;;;;;;19.11;46.13;100170.25;5095541;28;20028;-76
2021/09/26 01:09:05;;;;;;;6.82;5.00;;;;;;;19.12;45.76;100171.88;5095416;28;20165;-74
2021/09/26 01:11:47;;;;;;;6.47;5.35;;;;;;;19.15;45.85;100167.94;5095499;28;20536;-76
2021/09/26 01:14:28;;;;;;;8.65;5.97;;;;;;;18.95;45.82;100134.13;5095486;28;20024;-75
2021/09/26 01:17:15;;;;;;;5.97;5.43;;;;;;;19.14;45.83;100163.63;5095303;28;20120;-76
2021/09/26 01:20:11;;;;;;;10.10;5.43;;;;;;;19.05;46.44;100166.59;5095275;28;20024;-76
2021/09/26 01:23:03;;;;;;;6.53;5.22;;;;;;;18.93;46.42;100157.63;5095329;28;20103;-75
2021/09/26 01:25:43;;;;;;;;;;;;;;;18.76;46.75;100169.06;5095723;28;20036;-74
2021/09/26 01:28:44;;;;;;;7.45;5.50;;;;;;;18.87;45.99;100174.56;5093680;28;19919;-75
2021/09/26 01:31:19;;;;;;;5.78;4.68;;;;;;;18.73;45.54;100146.25;5094885;28;20024;-76
2021/09/26 01:33:56;;;;;;;8.32;5.75;;;;;;;18.67;45.54;100158.63;5094890;28;20092;-75
2021/09/26 01:36:27;;;;;;;5.18;4.55;;;;;;;18.56;45.78;100161.13;5094938;28;20024;-75
2021/09/26 01:39:05;;;;;;;7.75;5.40;;;;;;;18.41;45.83;100172.09;5094658;28;20031;-75
2021/09/26 01:42:01;;;;;;;6.20;5.03;;;;;;;18.31;45.91;100175.22;5094607;28;20024;-75
2021/09/26 01:44:51;;;;;;;8.27;5.25;;;;;;;18.14;46.19;100170.56;5094818;28;20214;-77
2021/09/26 01:47:20;;;;;;;7.47;4.80;;;;;;;18.10;46.33;100183.53;5094932;28;20104;-75
2021/09/26 01:49:50;;;;;;;7.55;4.72;;;;;;;17.30;46.44;100061.91;5094595;28;20132;-76
2021/09/26 01:52:21;;;;;;;7.05;4.80;;;;;;;17.21;46.65;100057.81;5094613;28;20032;-75
2021/09/26 01:54:48;;;;;;;5.43;4.13;;;;;;;17.83;46.66;100176.63;5094457;28;20552;-75
2021/09/26 01:57:19;;;;;;;11.18;4.97;;;;;;;17.79;46.81;100194.91;5094644;28;20103;-76
2021/09/26 01:59:48;;;;;;;7.32;5.32;;;;;;;17.71;47.18;100182.59;5094361;28;20505;-76
2021/09/26 02:02:17;;;;;;;7.13;5.18;;;;;;;17.70;47.22;100182.81;5094356;28;20090;-76
2021/09/26 02:04:51;;;;;;;6.53;5.10;;;;;;;17.42;47.55;100148.31;5092976;28;20027;-75
2021/09/26 02:07:18;;;;;;;6.15;5.15;;;;;;;17.61;47.30;100178.69;5094254;28;20031;-76
2021/09/26 02:09:46;;;;;;;8.50;5.53;;;;;;;17.61;47.37;100178.69;5094040;28;20101;-75
2021/09/26 02:12:13;;;;;;;5.45;4.95;;;;;;;17.59;47.59;100184.25;5094099;28;20114;-75
2021/09/26 02:14:41;;;;;;;6.15;5.10;;;;;;;17.62;47.43;100180.34;5094076;28;20030;-76
2021/09/26 02:17:08;;;;;;;7.47;5.22;;;;;;;17.36;47.53;100149.16;5094187;28;20028;-75
2021/09/26 02:19:35;;;;;;;7.35;5.30;;;;;;;17.22;47.46;100131.50;5094327;28;20140;-77
2021/09/26 02:22:02;;;;;;;5.68;5.07;;;;;;;17.48;47.42;100177.69;5093922;28;20123;-75
2021/09/26 02:24:29;;;;;;;7.25;5.07;;;;;;;17.10;47.30;100123.31;5092520;28;20059;-76
2021/09/26 02:26:54;;;;;;;5.90;5.03;;;;;;;17.30;47.70;100161.47;5093914;28;20027;-75
2021/09/26 02:29:20;;;;;;;5.80;4.90;;;;;;;17.20;47.23;100149.59;5093800;28;20088;-75
2021/09/26 02:31:45;;;;;;;5.35;4.85;;;;;;;16.64;47.37;100067.25;5093882;28;20119;-76
2021/09/26 02:34:10;;;;;;;8.95;5.28;;;;;;;17.32;47.28;100175.44;5093543;28;20051;-75
2021/09/26 02:36:36;;;;;;;5.80;5.03;;;;;;;17.14;47.84;100153.91;5093532;28;20040;-76
2021/09/26 02:39:03;;;;;;;9.38;5.50;;;;;;;16.18;47.38;100002.19;5093855;28;20020;-76
2021/09/26 02:41:49;;;;;;;7.22;5.43;;;;;;;17.23;47.77;100182.00;5093745;28;20106;-76
2021/09/26 02:44:36;;;;;;;6.50;4.70;;;;;;;17.36;47.90;100186.53;5093673;28;20020;-76
2021/09/26 02:47:09;;;;;;;5.50;4.50;;;;;;;17.29;47.66;100183.03;5093582;28;20107;-77
2021/09/26 02:49:34;;;;;;;6.10;4.40;;;;;;;17.16;47.53;100157.19;5093281;28;20024;-76
2021/09/26 02:52:00;;;;;;;5.53;4.72;;;;;;;17.37;47.44;100193.50;5093406;28;20024;-76
2021/09/26 02:54:36;;;;;;;5.93;4.85;;;;;;;16.90;47.67;100123.28;5093463;28;20397;-75
2021/09/26 02:57:01;;;;;;;5.10;4.55;;;;;;;17.27;47.78;100201.09;5093614;28;20020;-76
2021/09/26 02:59:27;;;;;;;6.20;5.00;;;;;;;17.20;47.56;100198.44;5093312;28;20024;-76
2021/09/26 03:01:53;;;;;;;7.40;4.63;;;;;;;16.51;47.69;100092.88;5092056;28;20084;-76
2021/09/26 03:04:19;;;;;;;5.38;4.88;;;;;;;17.22;47.85;100200.91;5093196;28;20035;-76
2021/09/26 03:06:45;;;;;;;5.43;4.50;;;;;;;17.05;47.64;100173.78;5093185;28;20035;-75
2021/09/26 03:09:11;;;;;;;7.72;4.80;;;;;;;17.14;47.89;100200.06;5091779;28;20020;-76
2021/09/26 03:11:36;;;;;;;7.45;4.65;;;;;;;17.12;48.08;100217.31;5093042;28;20078;-76
2021/09/26 03:14:02;;;;;;;5.72;4.00;;;;;;;17.01;47.96;100180.53;5092855;28;20031;-76
2021/09/26 03:16:28;;;;;;;6.03;4.90;;;;;;;16.11;48.15;100038.66;5092824;28;20020;-76
2021/09/26 03:18:53;;;;;;;6.95;4.88;;;;;;;16.96;48.12;100181.16;5091468;28;20024;-77
2021/09/26 03:21:19;;;;;;;7.97;5.35;;;;;;;17.08;48.43;100190.19;5092678;28;20024;-76
2021/09/26 03:23:44;;;;;;;6.13;4.82;;;;;;;17.07;48.51;100201.06;5092284;28;20017;-76
2021/09/26 03:26:10;;;;;;;9.15;5.57;;;;;;;16.98;48.19;100188.94;5092959;28;20024;-76
2021/09/26 03:28:36;;;;;;;5.78;4.65;;;;;;;17.03;48.60;100202.50;5092766;28;20111;-75
2021/09/26 03:31:01;;;;;;;5.60;4.45;;;;;;;17.04;48.47;100194.28;5092695;28;20459;-75
2021/09/26 03:33:27;;;;;;;7.38;5.25;;;;;;;17.06;48.55;100199.44;5092568;28;20044;-75
2021/09/26 03:35:52;;;;;;;6.07;4.70;;;;;;;17.08;48.24;100192.84;5092565;28;20027;-77
2021/09/26 03:38:18;;;;;;;4.90;4.13;;;;;;;17.05;48.19;100190.59;5092525;28;20461;-75
2021/09/26 03:40:43;;;;;;;8.82;4.85;;;;;;;16.82;48.49;100155.50;5092673;28;20017;-75
2021/09/26 03:43:09;;;;;;;5.35;4.85;;;;;;;16.95;48.37;100186.69;5092568;28;20020;-76
2021/09/26 03:45:34;;;;;;;9.10;4.93;;;;;;;16.91;48.79;100209.47;5092586;28;20077;-76
2021/09/26 03:48:00;;;;;;;5.30;4.80;;;;;;;16.80;48.79;100173.53;5092514;28;20024;-75
2021/09/26 03:50:25;;;;;;;8.02;5.13;;;;;;;16.82;48.66;100174.16;5092418;28;20035;-76
2021/09/26 03:52:51;;;;;;;6.85;5.05;;;;;;;16.83;48.83;100187.28;5092264;28;20069;-77
2021/09/26 03:55:17;;;;;;;5.65;5.05;;;;;;;16.16;48.73;100086.84;5091054;28;20498;-76
2021/09/26 03:57:43;;;;;;;6.75;5.13;;;;;;;16.78;48.84;100192.41;5092268;28;20047;-77
2021/09/26 04:00:12;;;;;;;6.38;5.57;;;;;;;16.71;49.30;100207.56;5092124;28;20016;-76
2021/09/26 04:02:38;;;;;;;7.80;5.35;;;;;;;16.67;49.13;100197.53;5090644;28;20405;-76
2021/09/26 04:05:04;;;;;;;6.18;4.50;;;;;;;15.64;49.28;100036.06;5091989;28;20023;-76
2021/09/26 04:07:29;;;;;;;5.85;5.25;;;;;;;16.48;49.62;100193.75;5091890;28;20020;-76
2021/09/26 04:09:55;;;;;;;6.00;5.20;;;;;;;16.41;49.78;100188.41;5091754;28;20016;-77
2021/09/26 04:12:20;;;;;;;7.05;5.30;;;;;;;16.44;49.77;100205.84;5091830;28;20466;-77
2021/09/26 04:14:46;;;;;;;5.88;5.05;;;;;;;16.49;49.74;100200.72;5091920;28;20508;-77
2021/09/26 04:17:11;;;;;;;8.25;4.95;;;;;;;16.54;49.16;100208.94;5090670;28;20024;-77
2021/09/26 04:19:37;;;;;;;6.22;5.35;;;;;;;15.44;49.53;100051.88;5091671;28;20030;-76
2021/09/26 04:22:02;;;;;;;6.63;4.90;;;;;;;16.35;49.69;100210.50;5091614;28;20509;-76
2021/09/26 04:24:28;;;;;;;7.68;5.28;;;;;;;16.16;49.88;100192.56;5092044;28;20414;-76
2021/09/26 04:26:53;;;;;;;6.07;5.45;;;;;;;16.13;49.88;100196.47;5091933;28;20020;-77
2021/09/26 04:29:18;;;;;;;6.95;5.93;;;;;;;16.25;49.43;100214.53;5091684;28;20103;-76
2021/09/26 04:31:44;;;;;;;7.45;5.15;;;;;;;16.32;49.73;100224.22;5090423;28;20566;-75
2021/09/26 04:34:10;;;;;;;7.15;5.80;;;;;;;16.24;49.37;100208.38;5090907;28;20040;-75
2021/09/26 04:36:36;;;;;;;7.63;6.20;;;;;;;16.00;49.45;100179.59;5091548;28;20061;-77
2021/09/26 04:39:02;;;;;;;7.63;5.95;;;;;;;15.70;49.74;100134.59;5091673;28;20480;-75
2021/09/26 04:41:28;;;;;;;8.20;5.78;;;;;;;15.93;49.48;100168.09;5091693;28;20031;-77
2021/09/26 04:43:53;;;;;;;9.23;6.40;;;;;;;16.24;49.81;100223.56;5091607;28;20424;-76
2021/09/26 04:46:18;;;;;;;9.65;5.65;;;;;;;16.25;49.76;100215.38;5091735;28;20028;-76
2021/09/26 04:48:44;;;;;;;8.00;6.05;;;;;;;16.24;49.54;100215.56;5091305;28;20024;-75
2021/09/26 04:51:09;;;;;;;9.30;5.93;;;;;;;16.12;49.99;100202.81;5091325;28;20024;-76
2021/09/26 04:53:35;;;;;;;8.52;6.75;;;;;;;15.64;49.59;100119.41;5091453;28;20028;-76
2021/09/26 04:56:01;;;;;;;9.23;6.22;;;;;;;16.24;49.75;100216.38;5091378;28;20031;-76
2021/09/26 04:58:28;;;;;;;9.80;6.65;;;;;;;16.32;49.74;100221.53;5091357;28;20073;-75
2021/09/26 05:00:55;;;;;;;10.02;6.82;;;;;;;16.32;49.85;100218.88;5091316;28;20027;-77
2021/09/26 05:03:20;;;;;;;7.70;6.85;;;;;;;15.75;49.79;100152.63;5089951;28;20432;-76
2021/09/26 05:05:46;;;;;;;10.50;6.35;;;;;;;16.03;49.81;100173.88;5091299;28;20023;-76
2021/09/26 05:08:11;;;;;;;9.35;6.78;;;;;;;15.81;50.13;100133.22;5091191;28;20020;-76
2021/09/26 05:10:37;;;;;;;8.27;6.05;;;;;;;16.28;49.74;100204.31;5091170;28;20028;-77
2021/09/26 05:13:02;;;;;;;10.93;7.40;;;;;;;16.40;49.75;100217.91;5091362;28;20017;-76
2021/09/26 05:15:28;;;;;;;10.85;8.70;;;;;;;16.41;50.06;100225.72;5091129;28;20028;-75
2021/09/26 05:17:54;;;;;;;12.45;9.38;;;;;;;16.46;49.96;100217.94;5091281;28;20390;-77
2021/09/26 05:20:20;;;;;;;13.45;9.15;;;;;;;16.49;50.29;100222.88;5089717;28;20451;-76
2021/09/26 05:22:48;;;;;;;11.20;9.02;;;;;;;15.81;50.90;100110.06;5091159;28;20034;-77
2021/09/26 05:25:13;;;;;;;11.98;8.85;;;;;;;15.86;50.84;100109.47;5091416;28;20020;-76
2021/09/26 05:27:39;;;;;;;12.52;10.23;;;;;;;16.46;50.59;100193.13;5091064;28;20507;-76
2021/09/26 05:30:06;;;;;;;13.18;10.18;;;;;;;16.39;50.81;100177.13;5089866;28;20043;-76
2021/09/26 05:32:31;;;;;;;16.55;11.52;;;;;;;16.83;50.85;100237.97;5091210;28;20077;-75
2021/09/26 05:34:58;;;;;;;15.48;12.23;;;;;;;16.92;50.55;100238.59;5090850;28;20048;-75
2021/09/26 05:37:23;;;;;;;15.00;12.07;;;;;;;16.15;50.46;100117.16;5091124;28;20020;-76
2021/09/26 05:39:49;;;;;;;21.15;12.25;;;;;;;16.61;50.70;100185.78;5091053;28;20016;-76
2021/09/26 05:42:14;;;;;;;14.88;10.70;;;;;;;17.06;50.41;100245.59;5091069;28;20064;-75
2021/09/26 05:44:40;;;;;;;14.45;10.90;;;;;;;17.16;50.54;100245.25;5091036;28;20024;-77
2021/09/26 05:47:08;;;;;;;16.73;10.65;;;;;;;17.23;50.47;100238.06;5093645;28;20511;-76
2021/09/26 05:49:37;;;;;;;16.98;11.55;;;;;;;17.06;50.53;100202.91;5094458;28;20024;-76
2021/09/26 05:52:09;;;;;;;17.88;11.90;;;;;;;17.37;50.57;100241.56;5094871;28;20401;-75
2021/09/26 05:54:40;;;;;;;13.88;11.27;;;;;;;17.44;50.48;100245.03;5093336;28;20427;-75
2021/09/26 05:57:06;;;;;;;17.17;10.98;;;;;;;17.20;50.64;100192.28;5094628;28;20028;-76
2021/09/26 05:59:37;;;;;;;19.52;11.82;;;;;;;17.62;50.51;100231.88;5094538;28;20022;-75
2021/09/26 06:02:04;;;;;;;15.70;11.52;;;;;;;17.56;49.95;100200.69;5094333;28;20024;-76
2021/09/26 06:04:29;;;;;;;12.45;10.80;;;;;;;17.97;50.04;100253.06;5094347;28;20031;-77
2021/09/26 06:06:56;;;;;;;14.60;10.70;;;;;;;18.06;50.34;100259.81;5094404;28;20115;-77
2021/09/26 06:09:21;;;;;;;11.20;9.60;;;;;;;17.88;50.46;100201.69;5094203;28;20493;-76
2021/09/26 06:11:46;;;;;;;12.80;9.93;;;;;;;17.84;50.43;100188.97;5092873;28;20031;-75
2021/09/26 06:14:12;;;;;;;14.55;12.07;;;;;;;18.30;50.51;100250.28;5094400;28;20023;-76
2021/09/26 06:16:37;;;;;;;11.35;9.63;;;;;;;18.07;50.49;100190.13;5094192;28;20020;-75
2021/09/26 06:19:03;;;;;;;12.60;10.98;;;;;;;18.49;50.55;100251.25;5093869;28;20012;-76
2021/09/26 06:21:28;;;;;;;14.02;11.40;;;;;;;18.56;50.40;100252.03;5094018;28;20423;-76
2021/09/26 06:23:53;;;;;;;16.35;13.95;;;;;;;18.64;50.64;100243.84;5094144;28;20031;-81
2021/09/26 06:26:20;;;;;;;19.35;13.30;;;;;;;18.75;50.52;100261.06;5092946;28;20031;-82
2021/09/26 06:28:46;;;;;;;14.98;12.52;;;;;;;17.88;50.75;100099.38;5093938;28;20024;-81
2021/09/26 06:31:12;;;;;;;19.95;11.75;;;;;;;18.78;50.67;100225.84;5093792;28;20076;-82
2021/09/26 06:33:40;;;;;;;13.38;11.40;;;;;;;19.04;50.58;100250.59;5093920;28;20052;-82
2021/09/26 06:36:06;;;;;;;11.20;10.00;;;;;;;19.14;50.63;100243.94;5093796;28;20047;-82
2021/09/26 06:38:32;;;;;;;13.23;11.35;;;;;;;18.54;51.33;100131.09;5093793;28;20070;-81
2021/09/26 06:40:58;;;;;;;10.95;9.23;;;;;;;19.26;51.47;100243.03;5092386;28;20052;-82
2021/09/26 06:43:24;;;;;;;13.68;11.50;;;;;;;19.27;51.62;100235.81;5093681;28;20030;-82
2021/09/26 06:45:50;;;;;;;15.52;10.85;;;;;;;19.21;51.94;100217.94;5093595;28;20032;-82
2021/09/26 06:48:15;;;;;;;13.85;9.77;;;;;;;19.36;52.32;100254.09;5093472;28;20059;-82
2021/09/26 06:50:41;;;;;;;12.98;10.77;;;;;;;19.21;52.42;100213.41;5093836;28;20024;-82
2021/09/26 06:53:06;;;;;;;19.55;10.70;;;;;;;19.53;52.27;100253.59;5093548;28;20499;-82
2021/09/26 06:55:32;;;;;;;13.18;9.68;;;;;;;19.39;52.33;100223.38;5093577;28;20020;-82
2021/09/26 06:57:57;;;;;;;12.70;8.63;;;;;;;19.54;52.20;100233.78;5092401;28;20028;-81
2021/09/26 07:00:23;;;;;;;10.50;8.75;;;;;;;19.32;52.07;100180.59;5093165;28;20099;-81
2021/09/26 07:02:49;;;;;;;11.60;9.10;;;;;;;19.44;51.76;100193.28;5093414;28;20028;-81
2021/09/26 07:05:14;;;;;;;9.50;8.57;;;;;;;19.23;51.70;100147.06;5093039;28;20055;-81
2021/09/26 07:07:44;;;;;;;11.98;9.32;;;;;;;19.58;51.50;100179.56;5093037;28;20051;-81
2021/09/26 07:10:10;;;;;;;8.55;7.00;;;;;;;20.07;51.14;100234.13;5093055;28;20030;-82
2021/09/26 07:12:36;;;;;;;8.35;7.53;;;;;;;19.96;50.75;100198.13;5092997;28;20080;-82
2021/09/26 07:15:01;;;;;;;9.15;7.03;;;;;;;20.06;50.42;100202.97;5092920;28;20027;-81
2021/09/26 07:17:27;;;;;;;7.45;6.75;;;;;;;20.39;49.95;100237.50;5093156;28;20016;-81
2021/09/26 07:19:53;;;;;;;8.88;6.65;;;;;;;20.49;49.73;100243.13;5093202;28;20099;-81
2021/09/26 07:22:23;;;;;;;9.05;5.82;;;;;;;19.76;49.52;100119.00;5092945;28;20107;-81
2021/09/26 07:24:49;;;;;;;6.78;6.07;;;;;;;20.54;49.33;100229.03;5091418;28;20020;-74
2021/09/26 07:27:15;;;;;;;7.70;6.55;;;;;;;20.60;48.98;100226.28;5091421;28;20027;-75
2021/09/26 07:29:42;;;;;;;7.43;6.30;;;;;;;20.37;48.71;100179.72;5092679;28;20020;-76
2021/09/26 07:32:08;;;;;;;8.13;6.20;;;;;;;20.16;48.51;100125.53;5092641;28;20457;-74
2021/09/26 07:34:33;;;;;;;8.77;5.88;;;;;;;21.00;48.28;100235.66;5092484;28;20122;-76
2021/09/26 07:36:59;;;;;;;8.68;5.60;;;;;;;21.10;48.38;100231.38;5092515;28;20036;-76
2021/09/26 07:39:24;;;;;;;10.88;6.05;;;;;;;20.13;48.25;100064.31;5092600;28;20385;-75
2021/09/26 07:41:49;;;;;;;7.60;6.05;;;;;;;21.30;47.74;100238.31;5092427;28;20028;-74
2021/09/26 07:44:15;;;;;;;6.25;5.55;;;;;;;21.27;47.66;100212.75;5092568;28;20113;-75
2021/09/26 07:46:43;;;;;;;8.20;6.40;;;;;;;21.28;47.24;100205.50;5092428;28;20020;-75
2021/09/26 07:49:09;;;;;;;6.45;5.63;;;;;;;21.04;46.59;100164.34;5092105;28;20420;-75
2021/09/26 07:51:34;;;;;;;6.95;5.28;;;;;;;21.23;46.62;100173.97;5092169;28;20035;-76
2021/09/26 07:54:00;;;;;;;6.78;5.05;;;;;;;21.72;46.67;100239.09;5092365;28;20416;-76
2021/09/26 07:56:25;;;;;;;8.00;7.20;;;;;;;21.42;46.43;100170.13;5092308;28;20034;-75
2021/09/26 07:58:50;;;;;;;9.88;7.07;;;;;;;21.90;46.16;100257.78;5092253;28;20020;-75
2021/09/26 08:01:16;;;;;;;7.57;6.32;;;;;;;21.91;46.01;100229.84;5092052;28;20100;-75
2021/09/26 08:03:41;;;;;;;13.00;6.55;;;;;;;22.02;45.99;100237.06;5092057;28;20028;-75
2021/09/26 08:06:07;;;;;;;9.23;5.90;;;;;;;22.08;45.67;100241.53;5091946;28;20022;-76
2021/09/26 08:08:35;;;;;;;7.70;6.18;;;;;;;22.04;45.53;100216.19;5091793;28;20028;-76
2021/09/26 08:11:02;;;;;;;6.38;5.32;;;;;;;22.22;45.33;100234.03;5091847;28;20024;-76
2021/09/26 08:13:28;;;;;;;7.53;5.40;;;;;;;22.16;45.10;100213.47;5091958;28;20024;-75
2021/09/26 08:15:53;;;;;;;9.75;5.97;;;;;;;21.45;44.81;100080.19;5091891;28;20028;-75
2021/09/26 08:18:19;;;;;;;8.57;5.10;;;;;;;22.42;44.62;100225.59;5091910;28;20020;-76
2021/09/26 08:20:44;;;;;;;12.02;5.70;;;;;;;22.58;44.22;100238.28;5091863;28;20080;-75
2021/09/26 08:23:10;;;;;;;8.65;5.60;;;;;;;22.48;43.72;100211.16;5091860;28;20051;-76
2021/09/26 08:25:35;;;;;;;7.10;5.28;;;;;;;22.61;43.53;100218.16;5091599;28;20038;-75
2021/09/26 08:28:01;;;;;;;7.43;5.72;;;;;;;22.76;43.39;100231.88;5091620;28;20028;-76
2021/09/26 08:30:26;;;;;;;6.70;5.03;;;;;;;22.77;43.23;100226.25;5091869;28;20020;-76
2021/09/26 08:32:52;;;;;;;5.68;5.05;;;;;;;22.45;42.85;100157.84;5091604;28;20020;-74
2021/09/26 08:35:17;;;;;;;7.32;4.88;;;;;;;22.92;42.84;100214.97;5091685;28;20504;-75
2021/09/26 08:37:43;;;;;;;6.47;4.53;;;;;;;23.15;42.29;100216.75;5091549;28;20027;-75
2021/09/26 08:40:10;;;;;;;5.22;4.70;;;;;;;23.30;42.11;100219.69;5091409;28;20107;-76
2021/09/26 08:42:37;;;;;;;6.20;5.05;;;;;;;23.32;41.88;100201.41;5091475;28;20476;-74
2021/09/26 08:45:05;;;;;;;6.65;5.57;;;;;;;23.56;41.44;100214.72;5091405;28;20024;-76
2021/09/26 08:47:36;;;;;;;5.03;4.53;;;;;;;23.67;41.32;100211.94;5091444;28;20032;-76
2021/09/26 08:50:03;;;;;;;7.10;4.88;;;;;;;23.80;41.28;100204.59;5091296;28;20026;-76
2021/09/26 08:52:28;;;;;;;5.90;4.55;;;;;;;23.86;41.08;100187.41;5091543;28;20523;-75
2021/09/26 08:54:54;;;;;;;5.75;5.07;;;;;;;24.09;40.97;100208.75;5091426;28;20024;-74
2021/09/26 08:57:21;;;;;;;6.25;4.72;;;;;;;24.24;40.60;100195.44;5091545;28;20024;-75
2021/09/26 08:59:47;;;;;;;5.00;4.45;;;;;;;23.56;40.29;100066.47;5091455;28;20027;-76
2021/09/26 09:02:12;;;;;;;6.82;4.65;;;;;;;24.58;39.80;100198.03;5091236;28;20027;-77
2021/09/26 09:04:41;;;;;;;5.00;4.50;;;;;;;24.73;39.42;100191.97;5091370;28;20034;-77
2021/09/26 09:07:11;;;;;;;4.75;3.95;;;;;;;24.93;39.09;100192.16;5091342;28;20031;-76
2021/09/26 09:09:47;;;;;;;6.85;5.10;;;;;;;25.12;37.85;100181.81;5091140;28;20028;-76
2021/09/26 09:12:13;;;;;;;5.13;4.35;;;;;;;25.18;38.13;100183.47;5091182;28;20019;-77
2021/09/26 09:14:55;;;;;;;6.82;5.10;;;;;;;25.46;37.66;100180.47;5091211;28;20077;-75
2021/09/26 09:17:27;;;;;;;5.20;4.20;;;;;;;25.55;37.43;100175.38;5091265;28;20099;-74
2021/09/26 09:20:15;;;;;;;5.47;4.38;;;;;;;25.73;36.90;100179.59;5090829;28;20149;-74
2021/09/26 09:22:43;;;;;;;5.07;3.95;;;;;;;25.79;37.18;100162.31;5095047;28;20024;-73
2021/09/26 09:25:36;;;;;;;5.35;4.22;;;;;;;26.11;36.19;100178.44;5094802;28;20523;-76
2021/09/26 09:28:04;;;;;;;8.75;6.57;;;;;;;26.28;36.40;100190.69;5094908;28;20031;-75
2021/09/26 09:30:33;;;;;;;5.85;4.43;;;;;;;26.37;35.79;100174.75;5094983;28;20511;-75
2021/09/26 09:33:00;;;;;;;5.65;4.53;;;;;;;26.22;35.75;100126.78;5094937;28;20012;-75
2021/09/26 09:35:28;;;;;;;7.18;4.55;;;;;;;26.52;35.23;100144.19;5095014;28;20028;-76
2021/09/26 09:37:55;;;;;;;10.50;8.32;;;;;;;26.50;35.13;100117.38;5094994;28;20032;-76
2021/09/26 09:40:21;;;;;;;6.35;4.95;;;;;;;25.91;34.72;100006.78;5094883;28;20028;-75
2021/09/26 09:42:51;;;;;;;4.97;4.50;;;;;;;27.01;34.31;100173.56;5094761;28;20412;-76
2021/09/26 09:45:19;;;;;;;5.45;4.28;;;;;;;27.18;33.89;100174.91;5094779;28;20036;-75
2021/09/26 09:47:56;;;;;;;9.57;8.45;;;;;;;27.42;33.34;100167.00;5093423;28;20111;-76
2021/09/26 09:50:28;;;;;;;5.60;4.93;;;;;;;27.01;33.42;100076.78;5094416;28;20024;-75
2021/09/26 09:52:54;;;;;;;5.97;4.75;;;;;;;27.66;33.27;100153.72;5094810;28;20024;-76
2021/09/26 09:55:20;;;;;;;12.05;10.82;;;;;;;27.83;33.34;100146.06;5076178;28;20548;-76
2021/09/26 09:57:45;;;;;;;5.07;4.45;;;;;;;27.77;32.76;100116.50;5074281;28;20040;-76
2021/09/26 10:00:17;;;;;;;11.30;9.13;;;;;;;28.07;32.42;100148.13;5074063;28;20028;-75
2021/09/26 10:02:43;;;;;;;7.07;4.70;;;;;;;28.23;31.97;100157.00;5073968;28;20417;-76
2021/09/26 10:05:28;;;;;;;10.52;6.88;;;;;;;28.33;31.53;100152.41;5073999;28;20028;-75
2021/09/26 10:07:54;;;;;;;14.60;10.82;;;;;;;28.45;31.60;100143.91;5073894;28;20024;-76
2021/09/26 10:10:19;;;;;;;6.50;5.05;;;;;;;28.54;31.27;100131.34;5074098;28;20029;-76
2021/09/26 10:12:45;;;;;;;6.05;4.40;;;;;;;28.84;31.02;100132.25;5073978;28;20465;-76
2021/09/26 10:15:10;;;;;;;26.05;21.92;;;;;;;28.99;30.98;100132.94;5073695;28;20039;-76
2021/09/26 10:17:36;;;;;;;10.85;7.20;;;;;;;29.10;30.38;100120.06;5073675;28;20024;-75
2021/09/26 10:20:01;;;;;;;17.63;14.65;;;;;;;29.08;29.89;100095.06;5073989;28;20020;-74
2021/09/26 10:22:26;;;;;;;7.70;6.50;;;;;;;29.48;29.92;100129.22;5073800;28;20020;-73
2021/09/26 10:24:54;;;;;;;10.43;6.50;;;;;;;29.38;29.40;100083.88;5074235;28;20020;-81
2021/09/26 10:27:22;;;;;;;5.18;4.65;;;;;;;29.52;29.08;100077.75;5073763;28;20028;-81
2021/09/26 10:30:10;;;;;;;7.55;5.45;;;;;;;29.92;29.02;100117.31;5073671;28;20107;-82
2021/09/26 10:32:37;;;;;;;5.15;4.65;;;;;;;30.09;28.88;100127.72;5072259;28;20028;-81
2021/09/26 10:35:03;;;;;;;8.02;7.22;;;;;;;30.22;29.03;100116.09;5073413;28;20056;-81
2021/09/26 10:37:29;;;;;;;7.95;6.82;;;;;;;29.90;29.01;100046.81;5073532;28;20481;-81
2021/09/26 10:39:54;;;;;;;7.28;4.55;;;;;;;29.89;28.45;100023.41;5073446;28;20116;-81
2021/09/26 10:42:21;;;;;;;5.55;4.50;;;;;;;30.53;28.65;100109.13;5073441;28;20059;-82
2021/09/26 10:44:50;;;;;;;7.00;5.28;;;;;;;29.73;28.22;99976.53;5073246;28;20527;-80
2021/09/26 10:47:18;;;;;;;7.05;4.07;;;;;;;30.57;28.26;100091.06;5073199;28;20390;-80
2021/09/26 10:49:45;;;;;;;7.03;4.88;;;;;;;30.66;27.93;100089.31;5072960;28;20508;-80
2021/09/26 10:52:38;;;;;;;7.45;5.97;;;;;;;30.77;27.60;100102.78;5073012;28;20051;-80
2021/09/26 10:55:18;;;;;;;8.00;4.95;;;;;;;30.86;27.02;100082.72;5073272;28;20096;-80
2021/09/26 10:58:06;;;;;;;6.55;4.68;;;;;;;30.90;27.10;100086.44;5073052;28;20033;-80
2021/09/26 11:00:35;;;;;;;7.43;5.25;;;;;;;30.99;27.59;100072.94;5072689;28;20066;-80
2021/09/26 11:03:11;;;;;;;8.02;4.70;;;;;;;31.06;26.93;100067.09;5072781;28;20028;-80
2021/09/26 11:05:38;;;;;;;4.32;3.92;;;;;;;31.06;26.82;100058.91;5072621;28;20025;-80
2021/09/26 11:08:08;;;;;;;4.95;3.85;;;;;;;31.11;26.94;100056.88;5072738;28;20024;-80
2021/09/26 11:10:46;;;;;;;7.18;4.15;;;;;;;30.80;26.80;100021.19;5072894;28;20640;-82
2021/09/26 11:13:26;;;;;;;5.13;3.80;;;;;;;30.93;26.55;100017.69;5072852;28;20029;-81
2021/09/26 11:15:58;;;;;;;4.78;3.88;;;;;;;31.26;26.95;100053.94;5072883;28;20028;-81
2021/09/26 11:18:47;;;;;;;6.18;4.20;;;;;;;31.41;26.63;100052.00;5072856;28;20024;-81
2021/09/26 11:21:44;;;;;;;4.32;3.78;;;;;;;31.49;26.52;100045.84;5072809;28;20139;-81
2021/09/26 11:24:18;;;;;;;6.18;5.57;;;;;;;31.56;26.52;100041.59;5071336;28;20410;-74
2021/09/26 11:27:18;;;;;;;6.22;4.93;;;;;;;31.53;26.23;100039.47;5072576;28;20091;-76